Time;durP1;ratioP1;P1;durP2;ratioP2;P2;SDS_P1;SDS_P2;PMS_P1;PMS_P2;Temp;Humidity;BMP_temperature;BMP_pressure;BME280_temperature;BME280_humidity;BME280_pressure;Samples;Min_cycle;Max_cycle;Signal;HPM_P1;HPM_P2
2021/05/02 00:00:07;;;;;;;9.88;6.03;;;;;;;;;;5068868;28;20044;-60
2021/05/02 00:02:35;;;;;;;9.25;5.43;;;;;;;;;;5064453;28;20052;-59
2021/05/02 00:05:02;;;;;;;6.90;5.07;;;;;;;;;;5069796;28;20720;-60
2021/05/02 00:07:30;;;;;;;8.18;4.95;;;;;;;;;;5075145;28;20463;-60
2021/05/02 00:09:59;;;;;;;8.70;4.95;;;;;;;;;;5060358;28;20060;-60
2021/05/02 00:12:27;;;;;;;7.72;5.15;;;;;;;;;;5068222;28;20141;-60
2021/05/02 00:14:55;;;;;;;10.60;5.70;;;;;;;;;;5071162;28;20053;-60
2021/05/02 00:17:23;;;;;;;8.35;5.20;;;;;;;;;;5067343;28;20075;-60
2021/05/02 00:19:50;;;;;;;8.60;5.38;;;;;;;;;;5067957;28;20040;-58
2021/05/02 00:22:18;;;;;;;8.18;5.43;;;;;;;;;;5068672;28;20086;-58
2021/05/02 00:24:46;;;;;;;9.70;5.82;;;;;;;;;;5065589;28;20068;-58
2021/05/02 00:27:14;;;;;;;8.80;5.00;;;;;;;;;;5066828;28;20080;-58
2021/05/02 00:29:42;;;;;;;8.85;5.32;;;;;;;;;;5063434;28;20526;-58
2021/05/02 00:32:10;;;;;;;8.18;5.60;;;;;;;;;;5068053;28;20372;-59
2021/05/02 00:34:38;;;;;;;8.52;5.70;;;;;;;;;;5067462;28;20056;-60
2021/05/02 00:37:06;;;;;;;9.52;5.85;;;;;;;;;;5063577;28;20138;-59
2021/05/02 00:39:35;;;;;;;8.77;4.90;;;;;;;;;;5063632;28;20559;-60
2021/05/02 00:42:04;;;;;;;7.95;5.35;;;;;;;;;;5067280;28;20056;-60
2021/05/02 00:44:37;;;;;;;7.65;5.35;;;;;;;;;;5068585;28;20083;-60
2021/05/02 00:47:11;;;;;;;8.73;5.18;;;;;;;;;;5066059;28;20068;-60
2021/05/02 00:49:40;;;;;;;8.77;6.03;;;;;;;;;;5068065;28;20048;-60
2021/05/02 00:52:12;;;;;;;8.52;5.70;;;;;;;;;;5068203;28;20479;-60
2021/05/02 00:54:43;;;;;;;7.55;5.28;;;;;;;;;;5068979;28;20045;-60
2021/05/02 00:57:13;;;;;;;8.43;5.15;;;;;;;;;;5066105;28;20135;-60
2021/05/02 00:59:46;;;;;;;9.15;6.55;;;;;;;;;;5067693;28;20040;-60
2021/05/02 01:02:14;;;;;;;9.85;5.88;;;;;;;;;;5067571;28;20117;-60
2021/05/02 01:04:42;;;;;;;9.15;6.03;;;;;;;;;;5067203;28;20062;-60
2021/05/02 01:07:14;;;;;;;9.20;5.55;;;;;;;;;;5062372;28;20087;-60
2021/05/02 01:09:41;;;;;;;9.27;6.20;;;;;;;;;;5068649;28;20080;-60
2021/05/02 01:12:11;;;;;;;10.10;6.47;;;;;;;;;;5068422;28;20051;-60
2021/05/02 01:14:40;;;;;;;8.63;5.65;;;;;;;;;;5067856;28;20076;-60
2021/05/02 01:17:11;;;;;;;8.45;6.43;;;;;;;;;;5067140;28;20415;-60
2021/05/02 01:19:40;;;;;;;8.63;5.68;;;;;;;;;;5067787;28;20048;-60
2021/05/02 01:22:15;;;;;;;9.05;5.95;;;;;;;;;;5072173;28;20052;-60
2021/05/02 01:24:47;;;;;;;7.25;5.40;;;;;;;;;;5070821;28;20420;-60
2021/05/02 01:27:26;;;;;;;8.82;5.60;;;;;;;;;;5069056;28;20075;-60
2021/05/02 01:29:53;;;;;;;9.20;5.90;;;;;;;;;;5070991;28;20563;-60
2021/05/02 01:32:21;;;;;;;10.35;5.25;;;;;;;;;;5071744;28;20151;-60
2021/05/02 01:34:49;;;;;;;6.80;4.93;;;;;;;;;;5066260;28;20415;-59
2021/05/02 01:37:16;;;;;;;7.20;4.13;;;;;;;;;;5068707;28;20044;-60
2021/05/02 01:39:44;;;;;;;6.20;3.97;;;;;;;;;;5071536;28;20134;-60
2021/05/02 01:42:12;;;;;;;6.10;3.92;;;;;;;;;;5071152;28;20574;-60
2021/05/02 01:44:40;;;;;;;5.18;3.70;;;;;;;;;;5069732;28;20544;-60
2021/05/02 01:47:10;;;;;;;5.05;3.47;;;;;;;;;;5068647;28;20488;-60
2021/05/02 01:49:41;;;;;;;4.55;2.92;;;;;;;;;;5071070;28;20033;-60
2021/05/02 01:52:08;;;;;;;3.00;2.35;;;;;;;;;;5072425;28;20052;-60
2021/05/02 01:54:37;;;;;;;3.92;2.67;;;;;;;;;;5071105;28;20051;-60
2021/05/02 01:57:08;;;;;;;3.78;2.72;;;;;;;;;;5068633;28;20080;-61
2021/05/02 01:59:38;;;;;;;3.85;2.80;;;;;;;;;;5070704;28;20063;-60
2021/05/02 02:02:07;;;;;;;3.95;2.55;;;;;;;;;;5065523;28;20048;-61
2021/05/02 02:04:35;;;;;;;4.47;3.03;;;;;;;;;;5068941;28;20061;-59
2021/05/02 02:07:03;;;;;;;3.10;2.60;;;;;;;;;;5066518;28;20156;-60
2021/05/02 02:09:32;;;;;;;2.58;1.95;;;;;;;;;;5069868;28;20052;-60
2021/05/02 02:11:59;;;;;;;3.22;2.20;;;;;;;;;;5071883;28;20293;-60
2021/05/02 02:14:27;;;;;;;3.05;2.50;;;;;;;;;;5071717;28;20045;-60
2021/05/02 02:16:56;;;;;;;2.40;1.77;;;;;;;;;;5070133;28;20224;-60
2021/05/02 02:19:23;;;;;;;2.45;1.88;;;;;;;;;;5069468;28;20053;-60
2021/05/02 02:21:51;;;;;;;1.70;1.58;;;;;;;;;;5070921;28;20484;-60
2021/05/02 02:24:24;;;;;;;2.08;1.50;;;;;;;;;;5069671;28;20102;-60
2021/05/02 02:26:52;;;;;;;2.83;1.20;;;;;;;;;;5067478;28;20041;-60
2021/05/02 02:29:19;;;;;;;1.85;1.23;;;;;;;;;;5068779;28;20122;-60
2021/05/02 02:31:47;;;;;;;1.85;1.50;;;;;;;;;;5069729;28;20049;-59
2021/05/02 02:34:16;;;;;;;1.73;1.30;;;;;;;;;;5069803;28;20446;-60
2021/05/02 02:36:43;;;;;;;2.10;1.40;;;;;;;;;;5066568;28;20040;-60
2021/05/02 02:39:11;;;;;;;1.55;1.23;;;;;;;;;;5068683;28;20402;-60
2021/05/02 02:41:39;;;;;;;2.42;1.20;;;;;;;;;;5070842;28;20143;-59
2021/05/02 02:44:08;;;;;;;1.70;1.25;;;;;;;;;;5069998;28;20123;-59
2021/05/02 02:46:38;;;;;;;1.73;1.17;;;;;;;;;;5067715;28;20052;-60
2021/05/02 02:49:06;;;;;;;1.40;1.00;;;;;;;;;;5069203;28;20041;-60
2021/05/02 02:51:35;;;;;;;1.80;1.00;;;;;;;;;;5069670;28;20079;-60
2021/05/02 02:54:03;;;;;;;1.90;1.27;;;;;;;;;;5068442;28;20051;-60
2021/05/02 02:56:31;;;;;;;1.65;1.25;;;;;;;;;;5069366;28;20080;-60
2021/05/02 02:59:05;;;;;;;1.50;1.20;;;;;;;;;;5069343;28;20083;-60
2021/05/02 03:01:33;;;;;;;;;;;;;;;;;;5069322;28;20052;-60
2021/05/02 03:04:03;;;;;;;1.45;0.98;;;;;;;;;;5069663;28;19927;-60
2021/05/02 03:06:30;;;;;;;1.85;1.20;;;;;;;;;;5064780;28;20059;-60
2021/05/02 03:08:58;;;;;;;1.55;1.00;;;;;;;;;;5067959;28;20496;-60
2021/05/02 03:11:26;;;;;;;1.52;1.02;;;;;;;;;;5070459;28;20151;-59
2021/05/02 03:13:54;;;;;;;1.10;1.00;;;;;;;;;;5068450;28;20083;-59
2021/05/02 03:16:24;;;;;;;1.05;0.70;;;;;;;;;;5069331;28;20132;-60
2021/05/02 03:18:53;;;;;;;1.55;1.17;;;;;;;;;;5068198;28;20044;-59
2021/05/02 03:21:24;;;;;;;1.80;1.25;;;;;;;;;;5069736;28;20051;-60
2021/05/02 03:23:54;;;;;;;1.67;1.13;;;;;;;;;;5068719;28;20139;-60
2021/05/02 03:26:24;;;;;;;1.40;1.10;;;;;;;;;;5068954;28;20104;-60
2021/05/02 03:28:53;;;;;;;1.48;0.93;;;;;;;;;;5065510;28;20072;-59
2021/05/02 03:31:24;;;;;;;1.27;0.80;;;;;;;;;;5068320;28;20187;-60
2021/05/02 03:33:54;;;;;;;0.80;0.70;;;;;;;;;;5064707;28;20042;-60
2021/05/02 03:36:25;;;;;;;1.10;0.77;;;;;;;;;;5068846;28;20041;-60
2021/05/02 03:38:52;;;;;;;0.70;0.68;;;;;;;;;;5069929;28;20048;-60
2021/05/02 03:41:20;;;;;;;0.63;0.60;;;;;;;;;;5071006;28;20175;-60
2021/05/02 03:43:48;;;;;;;1.15;0.88;;;;;;;;;;5069756;28;20056;-60
2021/05/02 03:46:25;;;;;;;0.85;0.80;;;;;;;;;;5069380;28;20485;-60
2021/05/02 03:48:53;;;;;;;1.02;0.70;;;;;;;;;;5071164;28;20138;-61
2021/05/02 03:51:20;;;;;;;0.80;0.70;;;;;;;;;;5068712;28;20122;-60
2021/05/02 03:53:48;;;;;;;1.75;0.93;;;;;;;;;;5069850;28;20086;-61
2021/05/02 03:56:29;;;;;;;0.77;0.70;;;;;;;;;;5068886;28;20052;-60
2021/05/02 03:59:04;;;;;;;0.73;0.70;;;;;;;;;;5043866;28;20060;-60
2021/05/02 04:01:32;;;;;;;1.13;0.80;;;;;;;;;;5069997;28;20040;-61
2021/05/02 04:03:59;;;;;;;0.88;0.70;;;;;;;;;;5069625;28;20390;-60
2021/05/02 04:06:27;;;;;;;1.30;0.93;;;;;;;;;;5069673;28;20059;-61
2021/05/02 04:08:54;;;;;;;1.23;0.90;;;;;;;;;;5070407;28;20102;-61
2021/05/02 04:11:22;;;;;;;1.67;0.85;;;;;;;;;;5069402;28;20143;-61
2021/05/02 04:13:49;;;;;;;1.45;0.85;;;;;;;;;;5073432;28;20049;-61
2021/05/02 04:16:18;;;;;;;2.90;1.00;;;;;;;;;;5070264;28;20127;-60
2021/05/02 04:18:45;;;;;;;2.28;1.35;;;;;;;;;;5069729;28;20437;-60
2021/05/02 04:21:12;;;;;;;3.72;2.10;;;;;;;;;;5067422;28;20080;-60
2021/05/02 04:23:39;;;;;;;3.08;2.10;;;;;;;;;;5070400;28;20087;-61
2021/05/02 04:26:07;;;;;;;3.63;2.10;;;;;;;;;;5070173;28;20087;-61
2021/05/02 04:28:34;;;;;;;3.30;2.45;;;;;;;;;;5068781;28;20092;-61
2021/05/02 04:31:01;;;;;;;3.83;2.55;;;;;;;;;;5065321;28;20107;-61
2021/05/02 04:33:29;;;;;;;5.03;3.20;;;;;;;;;;5070389;28;20123;-61
2021/05/02 04:35:57;;;;;;;3.67;2.47;;;;;;;;;;5070081;28;20131;-61
2021/05/02 04:38:24;;;;;;;4.15;2.85;;;;;;;;;;5070674;28;20127;-61
2021/05/02 04:40:52;;;;;;;4.25;3.08;;;;;;;;;;5081808;28;20048;-62
2021/05/02 04:43:19;;;;;;;5.13;3.30;;;;;;;;;;5086161;28;20118;-61
2021/05/02 04:45:46;;;;;;;6.10;2.72;;;;;;;;;;5066851;28;20384;-60
2021/05/02 04:48:14;;;;;;;3.80;2.92;;;;;;;;;;5069172;28;20044;-60
2021/05/02 04:50:42;;;;;;;5.85;3.83;;;;;;;;;;5069044;28;20119;-61
2021/05/02 04:53:09;;;;;;;5.10;3.17;;;;;;;;;;5066921;28;20057;-60
2021/05/02 04:55:37;;;;;;;4.47;3.38;;;;;;;;;;5072204;28;20126;-61
2021/05/02 04:58:06;;;;;;;5.75;3.72;;;;;;;;;;5072878;28;20040;-61
2021/05/02 05:00:34;;;;;;;4.32;2.72;;;;;;;;;;5069828;28;20071;-61
2021/05/02 05:03:02;;;;;;;4.95;3.10;;;;;;;;;;5069992;28;20052;-60
2021/05/02 05:05:29;;;;;;;4.70;3.22;;;;;;;;;;5069382;28;20492;-60
2021/05/02 05:07:58;;;;;;;5.03;3.30;;;;;;;;;;5069442;28;20137;-60
2021/05/02 05:10:25;;;;;;;5.07;3.28;;;;;;;;;;5069657;28;20052;-61
2021/05/02 05:12:52;;;;;;;6.05;3.28;;;;;;;;;;5069627;28;20049;-61
2021/05/02 05:15:20;;;;;;;4.88;3.25;;;;;;;;;;5068852;28;20076;-61
2021/05/02 05:17:47;;;;;;;4.50;3.00;;;;;;;;;;5069923;28;20044;-61
2021/05/02 05:20:15;;;;;;;4.45;2.97;;;;;;;;;;5067642;28;20048;-61
2021/05/02 05:22:42;;;;;;;4.53;2.97;;;;;;;;;;5075005;28;20058;-61
2021/05/02 05:25:10;;;;;;;4.40;2.80;;;;;;;;;;5068349;28;20048;-60
2021/05/02 05:27:38;;;;;;;3.97;2.85;;;;;;;;;;5067521;28;20524;-61
2021/05/02 05:30:06;;;;;;;3.85;3.00;;;;;;;;;;5064355;28;20131;-61
2021/05/02 05:32:33;;;;;;;4.10;2.90;;;;;;;;;;5063833;28;20430;-61
2021/05/02 05:35:00;;;;;;;4.10;2.83;;;;;;;;;;5068213;28;20049;-61
2021/05/02 05:37:28;;;;;;;4.82;3.42;;;;;;;;;;5065258;28;20135;-61
2021/05/02 05:39:55;;;;;;;3.47;2.58;;;;;;;;;;5070348;28;20139;-60
2021/05/02 05:42:23;;;;;;;4.18;3.03;;;;;;;;;;5067459;28;20052;-61
2021/05/02 05:44:51;;;;;;;4.68;3.00;;;;;;;;;;5067529;28;20071;-60
2021/05/02 05:47:19;;;;;;;8.23;3.60;;;;;;;;;;5059968;28;20045;-61
2021/05/02 05:49:46;;;;;;;4.25;3.00;;;;;;;;;;5064286;28;20045;-61
2021/05/02 05:52:13;;;;;;;8.90;2.95;;;;;;;;;;5062875;28;20495;-61
2021/05/02 05:54:41;;;;;;;4.95;3.08;;;;;;;;;;5061808;28;20048;-60
2021/05/02 05:57:09;;;;;;;5.18;3.42;;;;;;;;;;5060492;28;20048;-61
2021/05/02 05:59:38;;;;;;;4.50;3.05;;;;;;;;;;5062949;28;20054;-61
2021/05/02 06:02:06;;;;;;;7.13;3.60;;;;;;;;;;5058891;28;20044;-60
2021/05/02 06:04:33;;;;;;;5.43;3.58;;;;;;;;;;5065227;28;20064;-60
2021/05/02 06:07:01;;;;;;;5.78;3.63;;;;;;;;;;5063500;28;20126;-61
2021/05/02 06:09:29;;;;;;;6.00;4.22;;;;;;;;;;5061019;28;20492;-61
2021/05/02 06:11:56;;;;;;;6.47;4.10;;;;;;;;;;5061416;28;20150;-61
2021/05/02 06:14:24;;;;;;;5.10;3.45;;;;;;;;;;5067097;28;20508;-61
2021/05/02 06:16:52;;;;;;;5.32;3.67;;;;;;;;;;5060655;28;20091;-61
2021/05/02 06:19:19;;;;;;;5.72;3.90;;;;;;;;;;5059952;28;20084;-60
2021/05/02 06:21:46;;;;;;;4.43;3.30;;;;;;;;;;5064277;28;20442;-60
2021/05/02 06:24:14;;;;;;;6.63;4.28;;;;;;;;;;5060976;28;20048;-61
2021/05/02 06:26:41;;;;;;;5.28;4.00;;;;;;;;;;5061249;28;20715;-61
2021/05/02 06:29:08;;;;;;;6.10;3.78;;;;;;;;;;5068231;28;20055;-61
2021/05/02 06:31:36;;;;;;;6.10;3.67;;;;;;;;;;5058245;28;20083;-59
2021/05/02 06:34:04;;;;;;;6.68;4.35;;;;;;;;;;5060004;28;20051;-59
2021/05/02 06:36:32;;;;;;;7.40;4.60;;;;;;;;;;5058838;28;20045;-60
2021/05/02 06:38:59;;;;;;;6.65;4.75;;;;;;;;;;5066588;28;20083;-60
2021/05/02 06:41:26;;;;;;;7.60;4.43;;;;;;;;;;5065220;28;20135;-60
2021/05/02 06:43:54;;;;;;;6.70;4.53;;;;;;;;;;5063226;28;20945;-59
2021/05/02 06:46:28;;;;;;;7.65;5.07;;;;;;;;;;5067069;28;20510;-59
2021/05/02 06:48:56;;;;;;;8.13;5.43;;;;;;;;;;5058352;28;20503;-59
2021/05/02 06:51:25;;;;;;;7.82;4.63;;;;;;;;;;5063301;28;20813;-59
2021/05/02 06:53:52;;;;;;;8.18;5.63;;;;;;;;;;5066601;28;20091;-59
2021/05/02 06:56:20;;;;;;;8.85;5.72;;;;;;;;;;5065155;28;20049;-60
2021/05/02 06:58:48;;;;;;;10.02;6.10;;;;;;;;;;5064506;28;20044;-60
2021/05/02 07:01:15;;;;;;;8.80;5.93;;;;;;;;;;5062551;28;20076;-60
2021/05/02 07:03:43;;;;;;;9.35;6.05;;;;;;;;;;5065956;28;20084;-59
2021/05/02 07:06:31;;;;;;;10.13;5.97;;;;;;;;;;5064888;28;20511;-59
2021/05/02 07:08:58;;;;;;;9.52;6.10;;;;;;;;;;5068313;28;20062;-60
2021/05/02 07:11:26;;;;;;;12.65;7.00;;;;;;;;;;5059252;28;20093;-59
2021/05/02 07:13:54;;;;;;;10.50;6.55;;;;;;;;;;5057985;28;20048;-60
2021/05/02 07:16:22;;;;;;;10.52;6.38;;;;;;;;;;5060050;28;20142;-60
2021/05/02 07:18:51;;;;;;;9.55;6.20;;;;;;;;;;5058585;28;20056;-61
2021/05/02 07:21:20;;;;;;;10.98;7.03;;;;;;;;;;5058195;28;20171;-59
2021/05/02 07:23:50;;;;;;;11.88;7.45;;;;;;;;;;5053774;28;20080;-59
2021/05/02 07:26:18;;;;;;;10.75;6.68;;;;;;;;;;5062550;28;20044;-60
2021/05/02 07:28:45;;;;;;;12.13;7.43;;;;;;;;;;5058471;28;20504;-60
2021/05/02 07:31:13;;;;;;;11.27;7.38;;;;;;;;;;5059352;28;20076;-59
2021/05/02 07:33:42;;;;;;;12.90;8.15;;;;;;;;;;5062769;28;20450;-59
2021/05/02 07:36:10;;;;;;;13.25;8.43;;;;;;;;;;5057725;28;20040;-59
2021/05/02 07:38:37;;;;;;;13.88;8.43;;;;;;;;;;5065063;28;20060;-59
2021/05/02 07:41:06;;;;;;;14.18;8.70;;;;;;;;;;5055767;28;20163;-59
2021/05/02 07:43:33;;;;;;;15.02;8.60;;;;;;;;;;5058216;28;20112;-60
2021/05/02 07:46:01;;;;;;;16.17;9.38;;;;;;;;;;5056835;28;20056;-59
2021/05/02 07:48:28;;;;;;;16.65;8.63;;;;;;;;;;5058722;28;20131;-59
2021/05/02 07:50:57;;;;;;;14.73;8.32;;;;;;;;;;5055010;28;20052;-59
2021/05/02 07:53:24;;;;;;;18.25;10.38;;;;;;;;;;5062727;28;20090;-60
2021/05/02 07:55:52;;;;;;;16.40;9.65;;;;;;;;;;5057623;28;20048;-60
2021/05/02 07:58:20;;;;;;;15.23;9.43;;;;;;;;;;5057352;28;20133;-60
2021/05/02 08:00:48;;;;;;;15.05;9.27;;;;;;;;;;5060665;28;20076;-61
2021/05/02 08:03:15;;;;;;;17.50;9.02;;;;;;;;;;5061728;28;20459;-61
2021/05/02 08:05:43;;;;;;;19.10;11.05;;;;;;;;;;5062100;28;20060;-61
2021/05/02 08:08:10;;;;;;;20.33;11.25;;;;;;;;;;5055361;28;20136;-61
2021/05/02 08:10:37;;;;;;;21.40;12.18;;;;;;;;;;5056627;28;20063;-60
2021/05/02 08:13:05;;;;;;;22.95;13.02;;;;;;;;;;5057282;28;20051;-60
2021/05/02 08:15:33;;;;;;;22.15;12.52;;;;;;;;;;5058425;28;20126;-60
2021/05/02 08:18:01;;;;;;;19.70;12.20;;;;;;;;;;5051149;28;20492;-60
2021/05/02 08:20:29;;;;;;;23.13;13.07;;;;;;;;;;5054451;28;20703;-60
2021/05/02 08:22:56;;;;;;;24.75;15.73;;;;;;;;;;5057678;28;20056;-60
2021/05/02 08:25:24;;;;;;;22.80;13.80;;;;;;;;;;5061828;28;20131;-60
2021/05/02 08:27:52;;;;;;;23.10;15.35;;;;;;;;;;5053222;28;20163;-60
2021/05/02 08:30:19;;;;;;;23.95;14.40;;;;;;;;;;5065645;28;20423;-60
2021/05/02 08:32:47;;;;;;;22.90;14.60;;;;;;;;;;5059940;28;20136;-60
2021/05/02 08:35:15;;;;;;;25.48;14.07;;;;;;;;;;5063093;28;20496;-60
2021/05/02 08:37:43;;;;;;;27.85;16.10;;;;;;;;;;5054425;28;20106;-60
2021/05/02 08:40:11;;;;;;;25.52;16.52;;;;;;;;;;5066589;28;20375;-60
2021/05/02 08:42:38;;;;;;;28.92;16.77;;;;;;;;;;5064843;28;20048;-60
2021/05/02 08:45:07;;;;;;;27.48;17.05;;;;;;;;;;5067737;28;20124;-61
2021/05/02 08:47:38;;;;;;;28.25;17.35;;;;;;;;;;5067702;28;20044;-60
2021/05/02 08:50:09;;;;;;;28.00;17.98;;;;;;;;;;5066274;28;20051;-60
2021/05/02 08:52:36;;;;;;;28.30;16.88;;;;;;;;;;5064083;28;20081;-60
2021/05/02 08:55:06;;;;;;;26.08;16.30;;;;;;;;;;5051732;28;20103;-61
2021/05/02 08:57:34;;;;;;;25.85;16.25;;;;;;;;;;5060372;28;20125;-61
2021/05/02 09:00:01;;;;;;;25.30;16.15;;;;;;;;;;5065763;28;20084;-61
2021/05/02 09:02:31;;;;;;;27.10;15.55;;;;;;;;;;5069016;28;20091;-61
2021/05/02 09:05:00;;;;;;;24.52;15.50;;;;;;;;;;5064930;28;20543;-61
2021/05/02 09:07:29;;;;;;;28.20;15.13;;;;;;;;;;5070228;28;20043;-59
2021/05/02 09:09:56;;;;;;;23.35;14.02;;;;;;;;;;5069337;28;20075;-59
2021/05/02 09:12:24;;;;;;;21.77;13.75;;;;;;;;;;5068074;28;20048;-59
2021/05/02 09:14:53;;;;;;;21.27;13.50;;;;;;;;;;5062858;28;20126;-59
2021/05/02 09:17:27;;;;;;;25.33;15.43;;;;;;;;;;5065674;28;20569;-59
2021/05/02 09:19:56;;;;;;;22.05;13.55;;;;;;;;;;5065135;28;20814;-59
2021/05/02 09:22:24;;;;;;;22.65;14.73;;;;;;;;;;5065397;28;20505;-59
2021/05/02 09:25:04;;;;;;;21.83;14.52;;;;;;;;;;5057113;28;20323;-59
2021/05/02 09:27:32;;;;;;;22.63;15.82;;;;;;;;;;5063084;28;20094;-60
2021/05/02 09:30:13;;;;;;;21.80;13.85;;;;;;;;;;5058262;28;20057;-60
2021/05/02 09:32:44;;;;;;;23.98;15.27;;;;;;;;;;5062435;28;20047;-60
2021/05/02 09:35:27;;;;;;;22.50;15.27;;;;;;;;;;5063393;28;20358;-59
2021/05/02 09:38:08;;;;;;;23.95;15.75;;;;;;;;;;5063373;28;20555;-59
2021/05/02 09:40:45;;;;;;;29.55;18.83;;;;;;;;;;5060172;28;20049;-59
2021/05/02 09:43:28;;;;;;;30.23;18.60;;;;;;;;;;5064284;28;20048;-59
2021/05/02 09:46:24;;;;;;;25.42;16.48;;;;;;;;;;5054589;28;20053;-59
2021/05/02 09:48:56;;;;;;;29.02;17.52;;;;;;;;;;5061069;28;20060;-59
2021/05/02 09:51:25;;;;;;;26.08;16.90;;;;;;;;;;5065088;28;20045;-59
2021/05/02 09:54:03;;;;;;;25.83;16.00;;;;;;;;;;5057958;28;20173;-60
2021/05/02 09:56:33;;;;;;;24.50;16.02;;;;;;;;;;5051913;28;20056;-59
2021/05/02 09:59:00;;;;;;;25.58;16.33;;;;;;;;;;5055512;28;20049;-59
2021/05/02 10:01:28;;;;;;;27.20;17.63;;;;;;;;;;5065565;28;20148;-60
2021/05/02 10:03:56;;;;;;;27.95;17.40;;;;;;;;;;5058931;28;20061;-59
2021/05/02 10:06:30;;;;;;;28.67;17.95;;;;;;;;;;5065578;28;20466;-61
2021/05/02 10:08:58;;;;;;;27.45;17.20;;;;;;;;;;5034611;28;20498;-58
2021/05/02 10:11:25;;;;;;;29.63;18.30;;;;;;;;;;5057670;28;20057;-60
2021/05/02 10:13:54;;;;;;;28.05;17.85;;;;;;;;;;5061618;28;20052;-60
2021/05/02 10:16:21;;;;;;;25.85;17.15;;;;;;;;;;5062719;28;20326;-60
2021/05/02 10:18:50;;;;;;;27.92;17.95;;;;;;;;;;5064230;28;20059;-60
2021/05/02 10:21:18;;;;;;;26.63;16.67;;;;;;;;;;5066836;28;20422;-60
2021/05/02 10:23:45;;;;;;;24.88;16.15;;;;;;;;;;5062923;28;20045;-60
2021/05/02 10:26:13;;;;;;;24.95;16.58;;;;;;;;;;5058342;28;20052;-60
2021/05/02 10:28:42;;;;;;;30.40;16.85;;;;;;;;;;5065102;28;20126;-60
2021/05/02 10:31:11;;;;;;;25.92;16.75;;;;;;;;;;5064306;28;20127;-60
2021/05/02 10:33:41;;;;;;;28.02;16.75;;;;;;;;;;5065011;28;20051;-60
2021/05/02 10:36:09;;;;;;;27.20;16.75;;;;;;;;;;5065258;28;20048;-60
2021/05/02 10:38:48;;;;;;;28.30;17.40;;;;;;;;;;5064639;28;20083;-60
2021/05/02 10:41:22;;;;;;;27.73;16.77;;;;;;;;;;5059287;28;20044;-60
2021/05/02 10:43:50;;;;;;;27.95;18.63;;;;;;;;;;5061514;28;20056;-60
2021/05/02 10:46:36;;;;;;;26.40;17.48;;;;;;;;;;5066212;28;20056;-60
2021/05/02 10:49:05;;;;;;;25.98;15.65;;;;;;;;;;5012628;28;20075;-60
2021/05/02 10:51:34;;;;;;;23.52;15.90;;;;;;;;;;5062941;28;20110;-62
2021/05/02 10:54:09;;;;;;;26.15;16.20;;;;;;;;;;5063438;28;20056;-60
2021/05/02 10:56:44;;;;;;;26.95;15.52;;;;;;;;;;5063116;28;20120;-61
2021/05/02 10:59:11;;;;;;;23.92;15.23;;;;;;;;;;5062441;28;20106;-60
2021/05/02 11:01:38;;;;;;;26.65;16.70;;;;;;;;;;5063420;28;20070;-60
2021/05/02 11:04:07;;;;;;;26.55;16.08;;;;;;;;;;5064140;28;20064;-60
2021/05/02 11:06:54;;;;;;;28.38;17.77;;;;;;;;;;5052476;28;20520;-60
2021/05/02 11:09:23;;;;;;;31.58;17.73;;;;;;;;;;5062983;28;20850;-60
2021/05/02 11:11:56;;;;;;;30.35;17.90;;;;;;;;;;5066406;28;20406;-59
2021/05/02 11:14:37;;;;;;;29.65;19.08;;;;;;;;;;5063025;28;20824;-60
2021/05/02 11:17:23;;;;;;;29.65;18.85;;;;;;;;;;5056922;28;20563;-61
2021/05/02 11:19:53;;;;;;;26.48;17.08;;;;;;;;;;5067916;28;20113;-60
2021/05/02 11:22:22;;;;;;;27.52;17.75;;;;;;;;;;5068344;28;20067;-62
2021/05/02 11:24:58;;;;;;;27.58;17.52;;;;;;;;;;5067836;28;20536;-61
2021/05/02 11:27:28;;;;;;;28.00;19.67;;;;;;;;;;5065451;28;20443;-60
2021/05/02 11:30:15;;;;;;;31.42;19.45;;;;;;;;;;5055274;28;20582;-61
2021/05/02 11:32:43;;;;;;;36.05;20.92;;;;;;;;;;5058958;28;20514;-60
2021/05/02 11:35:13;;;;;;;30.35;19.67;;;;;;;;;;5060300;28;20103;-60
2021/05/02 11:37:42;;;;;;;32.40;20.55;;;;;;;;;;5060335;28;20053;-60
2021/05/02 11:40:28;;;;;;;33.75;21.88;;;;;;;;;;5063228;28;20040;-60
2021/05/02 11:42:57;;;;;;;30.40;19.63;;;;;;;;;;5058587;28;20052;-60
2021/05/02 11:45:26;;;;;;;30.52;21.35;;;;;;;;;;5062788;28;20075;-61
2021/05/02 11:47:54;;;;;;;29.45;19.85;;;;;;;;;;5059961;28;20452;-60
2021/05/02 11:50:23;;;;;;;31.60;21.40;;;;;;;;;;5060895;28;20469;-60
2021/05/02 11:52:51;;;;;;;31.23;19.80;;;;;;;;;;5062617;28;20048;-60
2021/05/02 11:55:28;;;;;;;32.47;21.13;;;;;;;;;;5064129;28;20396;-58
2021/05/02 11:57:56;;;;;;;31.15;19.88;;;;;;;;;;5060074;28;20044;-59
2021/05/02 12:00:36;;;;;;;33.90;20.65;;;;;;;;;;5059777;28;20056;-60
2021/05/02 12:03:05;;;;;;;30.70;20.13;;;;;;;;;;5062154;28;20092;-59
2021/05/02 12:05:35;;;;;;;33.20;20.37;;;;;;;;;;327412;28;10022899;-59
2021/05/02 12:08:09;;;;;;;30.15;20.25;;;;;;;;;;5053803;28;20305;-59
2021/05/02 12:10:37;;;;;;;33.13;22.10;;;;;;;;;;5068232;28;20058;-59
2021/05/02 12:13:05;;;;;;;33.67;21.30;;;;;;;;;;5066891;28;20098;-59
2021/05/02 12:15:33;;;;;;;34.10;22.90;;;;;;;;;;5067625;28;20050;-59
2021/05/02 12:18:01;;;;;;;36.35;22.65;;;;;;;;;;5053923;28;20100;-59
2021/05/02 12:20:30;;;;;;;33.70;22.10;;;;;;;;;;5056761;28;20052;-60
2021/05/02 12:22:58;;;;;;;31.80;21.23;;;;;;;;;;5063377;28;20082;-60
2021/05/02 12:25:25;;;;;;;31.75;21.40;;;;;;;;;;5056065;28;20053;-59
2021/05/02 12:27:57;;;;;;;35.78;22.20;;;;;;;;;;5055995;28;20409;-60
2021/05/02 12:30:26;;;;;;;30.75;21.42;;;;;;;;;;5058603;28;20052;-59
2021/05/02 12:32:55;;;;;;;33.50;20.13;;;;;;;;;;5063447;28;20415;-59
2021/05/02 12:35:23;;;;;;;34.60;22.55;;;;;;;;;;5057950;28;20538;-59
2021/05/02 12:37:50;;;;;;;33.50;22.70;;;;;;;;;;5064502;28;20049;-60
2021/05/02 12:40:19;;;;;;;34.80;22.25;;;;;;;;;;5062711;28;20048;-59
2021/05/02 12:42:46;;;;;;;32.85;21.77;;;;;;;;;;5062586;28;20087;-60
2021/05/02 12:45:15;;;;;;;34.80;22.45;;;;;;;;;;5063921;28;20533;-59
2021/05/02 12:47:46;;;;;;;35.55;24.02;;;;;;;;;;5062354;28;20114;-59
2021/05/02 12:50:15;;;;;;;36.55;23.08;;;;;;;;;;5063063;28;20503;-59
2021/05/02 12:52:44;;;;;;;32.83;22.80;;;;;;;;;;5063160;28;20067;-59
2021/05/02 12:55:23;;;;;;;37.70;25.80;;;;;;;;;;5062361;28;20102;-59
2021/05/02 12:57:52;;;;;;;34.72;23.13;;;;;;;;;;5063602;28;20845;-59
2021/05/02 13:00:23;;;;;;;40.58;25.17;;;;;;;;;;5059212;28;20051;-60
2021/05/02 13:02:50;;;;;;;39.97;25.08;;;;;;;;;;5061768;28;20041;-59
2021/05/02 13:05:20;;;;;;;38.67;25.40;;;;;;;;;;5062730;28;20559;-60
2021/05/02 13:07:49;;;;;;;40.25;26.33;;;;;;;;;;5063053;28;20059;-59
2021/05/02 13:10:30;;;;;;;38.50;25.23;;;;;;;;;;5062058;28;20098;-59
2021/05/02 13:12:58;;;;;;;37.90;25.30;;;;;;;;;;5062964;28;20052;-59
2021/05/02 13:15:28;;;;;;;40.05;26.17;;;;;;;;;;5064958;28;20094;-59
2021/05/02 13:18:07;;;;;;;40.50;25.48;;;;;;;;;;5065133;28;20045;-60
2021/05/02 13:20:45;;;;;;;34.92;24.42;;;;;;;;;;5059386;28;20056;-60
2021/05/02 13:23:12;;;;;;;35.65;25.10;;;;;;;;;;5059950;28;20079;-60
2021/05/02 13:25:41;;;;;;;36.55;24.25;;;;;;;;;;5067631;28;20048;-60
2021/05/02 13:28:08;;;;;;;38.60;25.45;;;;;;;;;;5068022;28;20055;-60
2021/05/02 13:30:39;;;;;;;38.90;25.20;;;;;;;;;;5066752;28;20315;-60
2021/05/02 13:33:08;;;;;;;34.47;23.50;;;;;;;;;;5067176;28;20044;-60
2021/05/02 13:35:36;;;;;;;36.35;23.67;;;;;;;;;;5068078;28;20040;-60
2021/05/02 13:38:04;;;;;;;34.50;23.23;;;;;;;;;;5065609;28;20477;-60
2021/05/02 13:40:32;;;;;;;38.10;22.98;;;;;;;;;;5064026;28;20358;-61
2021/05/02 13:43:02;;;;;;;36.88;24.27;;;;;;;;;;5066100;28;20037;-60
2021/05/02 13:45:30;;;;;;;37.33;24.52;;;;;;;;;;5060338;28;20078;-60
2021/05/02 13:47:58;;;;;;;36.83;24.52;;;;;;;;;;5062666;28;20060;-60
2021/05/02 13:50:25;;;;;;;38.10;23.75;;;;;;;;;;5063030;28;20491;-60
2021/05/02 13:52:53;;;;;;;38.30;24.15;;;;;;;;;;5068184;28;20104;-60
2021/05/02 13:55:20;;;;;;;37.35;23.20;;;;;;;;;;5067311;28;20048;-61
2021/05/02 13:57:51;;;;;;;31.58;22.80;;;;;;;;;;5065227;28;20052;-60
2021/05/02 14:00:23;;;;;;;36.30;22.50;;;;;;;;;;5067047;28;20056;-60
2021/05/02 14:02:50;;;;;;;33.10;21.33;;;;;;;;;;5067299;28;20053;-60
2021/05/02 14:05:18;;;;;;;34.67;21.58;;;;;;;;;;5066097;28;20079;-60
2021/05/02 14:07:46;;;;;;;34.72;21.92;;;;;;;;;;5064742;28;20053;-61
2021/05/02 14:10:14;;;;;;;32.75;21.73;;;;;;;;;;5065812;28;20599;-60
2021/05/02 14:12:42;;;;;;;32.88;22.10;;;;;;;;;;5066679;28;20133;-60
2021/05/02 14:15:10;;;;;;;30.65;21.60;;;;;;;;;;5067591;28;20048;-61
2021/05/02 14:17:39;;;;;;;39.75;22.77;;;;;;;;;;5066133;28;20146;-60
2021/05/02 14:20:07;;;;;;;31.10;21.85;;;;;;;;;;5077369;28;20459;-61
2021/05/02 14:22:35;;;;;;;29.10;21.17;;;;;;;;;;5070572;28;20049;-61
2021/05/02 14:25:05;;;;;;;30.60;21.08;;;;;;;;;;5062655;28;20061;-60
2021/05/02 14:27:33;;;;;;;32.67;21.13;;;;;;;;;;5062693;28;20055;-60
2021/05/02 14:30:00;;;;;;;32.88;21.30;;;;;;;;;;5072606;28;20076;-61
2021/05/02 14:32:28;;;;;;;29.02;20.25;;;;;;;;;;5067256;28;20070;-61
2021/05/02 14:34:56;;;;;;;29.13;20.20;;;;;;;;;;5066416;28;20045;-60
2021/05/02 14:37:29;;;;;;;30.25;20.48;;;;;;;;;;5066954;28;20055;-60
2021/05/02 14:39:56;;;;;;;28.30;20.10;;;;;;;;;;5076172;28;20052;-60
2021/05/02 14:42:24;;;;;;;27.70;18.95;;;;;;;;;;5077510;28;20154;-60